Time;durP1;ratioP1;P1;durP2;ratioP2;P2;SDS_P1;SDS_P2;PMS_P1;PMS_P2;Temp;Humidity;BMP_temperature;BMP_pressure;BME280_temperature;BME280_humidity;BME280_pressure;Samples;Min_cycle;Max_cycle;Signal;HPM_P1;HPM_P2
2021/03/04 00:01:16;;;;;;;46.47;22.77;;;;;;;9.41;65.42;101126.25;5044997;28;20124;-87
2021/03/04 00:03:43;;;;;;;41.90;23.38;;;;;;;9.43;65.54;101135.84;5037494;28;20456;-87
2021/03/04 00:06:10;;;;;;;47.00;24.80;;;;;;;9.37;65.79;101128.09;5038066;28;20061;-87
2021/03/04 00:08:36;;;;;;;39.55;23.23;;;;;;;9.38;65.74;101128.97;5038583;28;20063;-87
2021/03/04 00:11:10;;;;;;;43.33;23.52;;;;;;;9.30;65.90;101129.19;5034116;28;20046;-85
2021/03/04 00:13:36;;;;;;;43.20;23.92;;;;;;;9.24;66.21;101129.38;5032619;28;20080;-85
2021/03/04 00:16:03;;;;;;;48.63;25.55;;;;;;;9.19;66.24;101120.72;5043255;28;20053;-85
2021/03/04 00:18:30;;;;;;;45.20;24.52;;;;;;;9.15;66.68;101127.00;5037852;28;20115;-85
2021/03/04 00:21:08;;;;;;;40.63;23.25;;;;;;;9.10;67.14;101121.00;5045033;28;20050;-85
2021/03/04 00:23:59;;;;;;;42.08;24.23;;;;;;;9.09;66.88;101120.13;5063642;28;20072;-87
2021/03/04 00:26:26;;;;;;;40.05;23.50;;;;;;;9.07;66.80;101114.03;5053864;28;20045;-87
2021/03/04 00:28:53;;;;;;;46.00;25.05;;;;;;;9.02;67.16;101115.94;5051578;28;20085;-86
2021/03/04 00:31:20;;;;;;;47.35;25.55;;;;;;;9.08;66.92;101113.13;5076479;28;20061;-86
2021/03/04 00:33:52;;;;;;;42.72;24.30;;;;;;;9.07;67.06;101111.38;5076931;28;20040;-86
2021/03/04 00:36:21;;;;;;;43.30;23.85;;;;;;;9.14;66.93;101112.91;5077552;28;20037;-84
2021/03/04 00:38:49;;;;;;;42.47;22.85;;;;;;;9.13;66.43;101105.91;5072205;28;20060;-87
2021/03/04 00:41:17;;;;;;;45.40;24.48;;;;;;;9.14;66.69;101112.91;5077295;28;20056;-87
2021/03/04 00:43:44;;;;;;;40.42;22.98;;;;;;;9.12;66.63;101103.34;5060770;28;20120;-85
2021/03/04 00:46:12;;;;;;;45.63;24.90;;;;;;;9.09;66.57;101108.72;5045726;28;20036;-85
2021/03/04 00:48:39;;;;;;;42.08;23.58;;;;;;;9.00;67.02;101095.75;5078237;28;20033;-85
2021/03/04 00:51:05;;;;;;;44.72;23.83;;;;;;;8.99;67.28;101099.28;5077113;28;20072;-84
2021/03/04 00:53:32;;;;;;;46.95;24.10;;;;;;;9.01;67.10;101103.63;5071767;28;20045;-84
2021/03/04 00:56:00;;;;;;;44.17;24.33;;;;;;;9.01;66.83;101100.13;5076586;28;20044;-85
2021/03/04 00:58:26;;;;;;;40.10;23.63;;;;;;;9.01;67.33;101090.41;5064225;28;20049;-85
2021/03/04 01:00:53;;;;;;;42.25;24.15;;;;;;;8.98;67.45;101087.00;5075606;28;20053;-87
2021/03/04 01:03:19;;;;;;;41.03;23.83;;;;;;;8.96;67.29;101097.63;5065475;28;20462;-87
2021/03/04 01:05:46;;;;;;;39.97;23.83;;;;;;;8.90;67.68;101087.25;5062099;28;20842;-86
2021/03/04 01:08:16;;;;;;;41.30;24.55;;;;;;;8.91;67.35;101088.09;5039198;28;20045;-84
2021/03/04 01:10:44;;;;;;;41.63;24.70;;;;;;;8.86;68.10;101079.44;5041760;28;20443;-85
2021/03/04 01:13:14;;;;;;;44.47;24.23;;;;;;;8.86;68.16;101076.78;5062995;28;20113;-84
2021/03/04 01:15:43;;;;;;;45.42;25.20;;;;;;;8.81;68.16;101076.97;5067326;28;20055;-86
2021/03/04 01:18:25;;;;;;;42.80;24.52;;;;;;;8.77;68.41;101081.44;5050322;28;20055;-87
2021/03/04 01:20:52;;;;;;;43.47;24.20;;;;;;;8.74;68.57;101078.88;5077997;28;20530;-86
2021/03/04 01:23:18;;;;;;;44.25;24.52;;;;;;;8.72;68.53;101072.78;5047708;28;20045;-86
2021/03/04 01:25:52;;;;;;;41.10;25.02;;;;;;;8.69;68.77;101070.22;5060331;28;20045;-87
2021/03/04 01:28:22;;;;;;;41.30;24.15;;;;;;;8.61;69.17;101060.81;5078286;28;20069;-86
2021/03/04 01:30:48;;;;;;;49.28;24.63;;;;;;;8.64;69.02;101058.09;5074171;28;20047;-85
2021/03/04 01:33:18;;;;;;;51.78;25.63;;;;;;;8.63;69.02;101057.22;5052412;28;20085;-84
2021/03/04 01:35:47;;;;;;;45.35;25.38;;;;;;;8.62;69.36;101052.84;5071989;28;20039;-86
2021/03/04 01:38:15;;;;;;;44.97;25.55;;;;;;;8.61;69.10;101051.13;5074140;28;20593;-86
2021/03/04 01:40:41;;;;;;;48.35;25.88;;;;;;;8.61;69.51;101044.97;5068164;28;20468;-86
2021/03/04 01:43:08;;;;;;;43.20;26.42;;;;;;;8.59;69.41;101039.72;5049698;28;20045;-86
2021/03/04 01:45:35;;;;;;;45.15;26.38;;;;;;;8.60;69.38;101035.31;5040515;28;20068;-84
2021/03/04 01:48:02;;;;;;;37.38;24.70;;;;;;;8.60;69.60;101038.81;5038897;28;20040;-86
2021/03/04 01:50:31;;;;;;;44.22;26.08;;;;;;;8.60;69.37;101025.63;5054944;28;20049;-86
2021/03/04 01:52:58;;;;;;;45.90;25.58;;;;;;;8.58;69.67;101032.72;5047653;28;20052;-86
2021/03/04 01:55:25;;;;;;;46.38;25.85;;;;;;;8.59;69.42;101028.31;5055098;28;20423;-86
2021/03/04 01:57:52;;;;;;;43.10;26.10;;;;;;;8.57;69.75;101028.34;5043842;28;20044;-84
2021/03/04 02:00:22;;;;;;;40.53;25.13;;;;;;;8.58;69.84;101026.56;5059566;28;20724;-86
2021/03/04 02:03:30;;;;;;;41.20;24.63;;;;;;;8.60;69.37;101025.63;5039178;28;20060;-85
2021/03/04 02:05:57;;;;;;;41.70;23.67;;;;;;;8.61;69.51;101008.88;5070603;28;20104;-86
2021/03/04 02:08:33;;;;;;;41.40;24.00;;;;;;;8.65;69.13;101001.72;5055772;28;20053;-88
2021/03/04 02:11:11;;;;;;;40.10;24.60;;;;;;;8.67;69.18;101003.41;5042725;28;20100;-86
2021/03/04 02:13:51;;;;;;;39.88;24.08;;;;;;;8.70;68.92;100989.25;5058925;28;20045;-88
2021/03/04 02:16:45;;;;;;;45.20;24.77;;;;;;;8.71;68.89;100988.34;5050101;28;20044;-87
2021/03/04 02:19:31;;;;;;;41.75;24.25;;;;;;;8.74;68.77;100986.47;5034664;28;20129;-84
2021/03/04 02:21:59;;;;;;;39.10;24.50;;;;;;;8.75;68.70;100988.22;5049179;28;20045;-87
2021/03/04 02:24:56;;;;;;;39.05;24.17;;;;;;;8.76;68.82;100979.38;5071138;28;20057;-85
2021/03/04 02:27:34;;;;;;;38.92;22.58;;;;;;;8.77;68.77;100981.09;5060116;28;20108;-87
2021/03/04 02:30:15;;;;;;;44.92;24.60;;;;;;;8.75;68.62;100972.38;5065926;28;20049;-87
2021/03/04 02:32:49;;;;;;;41.72;23.25;;;;;;;8.77;68.69;100973.19;5072717;28;20048;-87
2021/03/04 02:35:25;;;;;;;43.13;24.00;;;;;;;8.78;68.66;100972.28;5066719;28;20045;-86
2021/03/04 02:37:56;;;;;;;37.67;23.35;;;;;;;8.79;68.69;100971.38;5058569;28;20101;-87
2021/03/04 02:40:26;;;;;;;42.42;23.88;;;;;;;8.78;68.47;100963.50;5077050;28;20056;-84
2021/03/04 02:42:54;;;;;;;43.22;24.35;;;;;;;8.84;68.55;100975.63;5061831;28;20053;-87
2021/03/04 02:45:25;;;;;;;40.78;25.30;;;;;;;8.84;68.26;100976.47;5058017;28;20108;-84
2021/03/04 02:47:53;;;;;;;43.20;23.88;;;;;;;8.82;68.36;100977.44;5052378;28;20058;-86
2021/03/04 02:50:22;;;;;;;40.47;23.73;;;;;;;8.79;68.53;100971.38;5047073;28;20152;-86
2021/03/04 02:52:51;;;;;;;35.97;22.75;;;;;;;8.79;68.33;100970.50;5067601;28;20055;-86
2021/03/04 02:55:22;;;;;;;40.97;22.10;;;;;;;8.76;68.43;100968.81;5077012;28;20057;-84
2021/03/04 02:57:49;;;;;;;40.15;23.27;;;;;;;8.77;68.57;100977.59;5074389;28;20036;-86
2021/03/04 03:00:23;;;;;;;40.90;22.83;;;;;;;8.71;68.48;100970.72;5058959;28;20048;-87
2021/03/04 03:02:52;;;;;;;37.50;23.23;;;;;;;8.75;68.17;100972.38;5050832;28;20108;-84
2021/03/04 03:05:22;;;;;;;38.60;22.90;;;;;;;8.74;68.23;100965.34;5072570;28;20037;-86
2021/03/04 03:07:52;;;;;;;39.55;23.58;;;;;;;8.69;68.34;100955.81;5073284;28;20036;-85
2021/03/04 03:10:21;;;;;;;38.08;23.63;;;;;;;8.64;68.91;100949.84;5071381;28;20040;-84
2021/03/04 03:12:48;;;;;;;40.13;24.02;;;;;;;8.56;68.62;100938.63;5053943;28;20044;-86
2021/03/04 03:15:18;;;;;;;40.60;22.48;;;;;;;8.54;69.09;100930.75;5081688;28;20041;-87
2021/03/04 03:17:46;;;;;;;41.67;23.80;;;;;;;8.55;68.86;100931.63;5061665;28;20056;-85
2021/03/04 03:20:20;;;;;;;39.40;23.42;;;;;;;8.54;69.12;100928.13;5065198;28;20068;-87
2021/03/04 03:22:51;;;;;;;35.13;22.27;;;;;;;8.50;69.33;100923.84;5067217;28;20049;-86
2021/03/04 03:25:19;;;;;;;36.20;21.77;;;;;;;8.46;69.57;100922.22;5087253;28;20120;-86
2021/03/04 03:27:46;;;;;;;37.92;21.98;;;;;;;8.38;69.95;100924.19;5054348;28;20054;-87
2021/03/04 03:30:26;;;;;;;41.00;23.15;;;;;;;8.37;70.01;100936.53;5060981;28;20037;-84
2021/03/04 03:32:58;;;;;;;36.50;22.42;;;;;;;8.36;69.92;100931.28;5057835;28;20049;-87
2021/03/04 03:35:29;;;;;;;45.72;23.77;;;;;;;8.27;69.94;100929.78;5059347;28;20052;-87
2021/03/04 03:37:57;;;;;;;36.63;21.80;;;;;;;8.23;70.14;100924.63;5054607;28;20095;-87
2021/03/04 03:41:05;;;;;;;39.30;22.40;;;;;;;8.15;70.49;100929.25;5054212;28;20049;-87
2021/03/04 03:43:38;;;;;;;44.08;24.98;;;;;;;8.04;70.88;100919.88;5064094;28;20059;-84
2021/03/04 03:46:04;;;;;;;41.63;23.90;;;;;;;7.97;71.51;100925.38;5046949;28;20210;-85
2021/03/04 03:48:32;;;;;;;42.50;24.45;;;;;;;7.88;72.24;100933.50;5057752;28;20052;-85
2021/03/04 03:50:59;;;;;;;40.80;23.60;;;;;;;7.76;72.49;100929.44;5063739;28;20049;-86
2021/03/04 03:53:26;;;;;;;41.63;24.85;;;;;;;7.67;72.97;100929.69;5047053;28;20044;-87
2021/03/04 03:55:55;;;;;;;42.13;24.05;;;;;;;7.58;72.77;100924.66;5052557;28;20044;-86
2021/03/04 03:58:23;;;;;;;46.10;24.88;;;;;;;7.52;73.57;100935.38;5074690;28;20050;-85
2021/03/04 04:00:57;;;;;;;44.35;24.88;;;;;;;7.45;74.03;100926.75;5070119;28;20060;-86
2021/03/04 04:03:24;;;;;;;43.55;25.17;;;;;;;7.37;74.14;100921.69;5078292;28;20097;-85
2021/03/04 04:05:52;;;;;;;43.40;26.05;;;;;;;7.34;74.55;100934.06;5059629;28;20054;-86
2021/03/04 04:08:19;;;;;;;46.20;26.55;;;;;;;7.24;75.13;100928.16;5062928;28;20057;-84
2021/03/04 04:10:49;;;;;;;42.75;25.83;;;;;;;7.17;75.44;100920.44;5071472;28;20063;-86
2021/03/04 04:13:18;;;;;;;41.95;25.83;;;;;;;7.09;75.34;100920.63;5078979;28;20052;-85
2021/03/04 04:15:45;;;;;;;42.42;25.55;;;;;;;7.01;76.13;100934.00;5073421;28;20045;-86
2021/03/04 04:18:13;;;;;;;42.70;25.83;;;;;;;6.94;76.57;100926.25;5074246;28;20033;-86
2021/03/04 04:20:48;;;;;;;47.50;26.55;;;;;;;6.89;76.52;100918.50;5045177;28;20037;-84
2021/03/04 04:23:19;;;;;;;44.17;26.10;;;;;;;6.83;76.97;100909.84;5075231;28;20025;-86
2021/03/04 04:25:52;;;;;;;39.03;24.92;;;;;;;6.81;77.25;100904.63;5093520;28;20060;-88
2021/03/04 04:28:21;;;;;;;46.38;26.08;;;;;;;6.81;77.20;100895.88;5072207;28;20076;-86
2021/03/04 04:30:50;;;;;;;40.92;25.25;;;;;;;6.80;77.41;100905.53;5070049;28;20041;-85
2021/03/04 04:33:16;;;;;;;47.05;26.30;;;;;;;6.81;77.89;100902.00;5068419;28;20116;-85
2021/03/04 04:35:44;;;;;;;40.42;24.92;;;;;;;6.83;77.85;100886.16;5073607;28;20041;-84
2021/03/04 04:38:11;;;;;;;45.70;25.42;;;;;;;6.84;77.95;100887.91;5073533;28;20041;-85
2021/03/04 04:40:40;;;;;;;41.10;24.92;;;;;;;6.85;77.61;100885.22;5048624;28;20102;-86
2021/03/04 04:43:07;;;;;;;43.67;25.40;;;;;;;6.86;77.21;100886.09;5052578;28;20063;-85
2021/03/04 04:45:39;;;;;;;43.42;25.80;;;;;;;6.90;77.41;100893.03;5086671;28;20072;-87
2021/03/04 04:48:06;;;;;;;43.55;25.35;;;;;;;6.89;77.69;100891.31;5071709;28;20076;-86
2021/03/04 04:50:33;;;;;;;48.92;25.50;;;;;;;6.92;77.37;100897.38;5061606;28;20061;-85
2021/03/04 04:53:01;;;;;;;46.92;25.38;;;;;;;6.91;77.39;100892.13;5050539;28;20057;-86
2021/03/04 04:55:27;;;;;;;43.88;25.08;;;;;;;6.90;77.51;100893.91;5063786;28;20049;-85
2021/03/04 04:57:53;;;;;;;42.22;25.75;;;;;;;6.90;77.28;100888.63;5045699;28;20051;-85
2021/03/04 05:00:22;;;;;;;42.63;25.20;;;;;;;6.87;77.02;100887.84;5065792;28;20033;-86
2021/03/04 05:02:52;;;;;;;39.60;24.23;;;;;;;6.84;77.20;100885.28;5085149;28;20043;-88
2021/03/04 05:05:20;;;;;;;44.17;25.33;;;;;;;6.81;77.50;100883.56;5082163;28;20130;-84
2021/03/04 05:07:49;;;;;;;40.97;24.63;;;;;;;6.79;77.64;100885.38;5070742;28;20045;-84
2021/03/04 05:10:15;;;;;;;48.13;24.95;;;;;;;6.76;77.44;100887.22;5049525;28;20120;-85
2021/03/04 05:12:42;;;;;;;41.25;25.58;;;;;;;6.67;77.62;100876.00;5071095;28;20045;-86
2021/03/04 05:15:10;;;;;;;46.42;25.90;;;;;;;6.66;77.53;100887.44;5075111;28;20104;-84
2021/03/04 05:17:41;;;;;;;44.17;25.65;;;;;;;6.61;77.66;100886.66;5073739;28;20053;-85
2021/03/04 05:20:10;;;;;;;41.42;25.00;;;;;;;6.61;77.59;100883.19;5071912;28;20049;-85
2021/03/04 05:22:37;;;;;;;45.90;25.25;;;;;;;6.48;77.82;100864.16;5053949;28;20105;-84
2021/03/04 05:25:06;;;;;;;39.35;24.50;;;;;;;6.37;78.84;100860.91;5051683;28;20037;-85
2021/03/04 05:27:33;;;;;;;44.97;26.40;;;;;;;6.31;79.27;100864.53;5054388;28;20029;-86
2021/03/04 05:30:00;;;;;;;43.35;25.80;;;;;;;6.30;79.41;100854.03;5079674;28;20235;-86
2021/03/04 05:32:27;;;;;;;49.00;26.65;;;;;;;6.32;79.34;100853.13;5070956;28;20083;-86
2021/03/04 05:34:54;;;;;;;42.83;25.30;;;;;;;6.38;79.38;100846.00;5071801;28;20044;-84
2021/03/04 05:37:20;;;;;;;45.65;26.15;;;;;;;6.39;79.47;100853.00;5075805;28;20113;-85
2021/03/04 05:39:57;;;;;;;45.70;25.58;;;;;;;6.41;79.32;100856.47;5069623;28;20059;-86
2021/03/04 05:42:24;;;;;;;45.38;25.05;;;;;;;6.45;79.37;100860.75;5074100;28;20293;-87
2021/03/04 05:44:52;;;;;;;47.38;25.08;;;;;;;6.46;79.42;100850.16;5083685;28;20045;-85
2021/03/04 05:47:20;;;;;;;43.42;25.77;;;;;;;6.48;79.13;100835.22;5069556;28;20077;-85
2021/03/04 05:49:55;;;;;;;43.22;26.20;;;;;;;6.44;78.89;100822.19;5050137;28;20060;-86
2021/03/04 05:52:22;;;;;;;43.08;25.08;;;;;;;6.50;79.46;100830.78;5065825;28;20052;-86
2021/03/04 05:54:54;;;;;;;41.45;25.35;;;;;;;6.54;79.48;100832.47;5069071;28;20476;-86
2021/03/04 05:57:22;;;;;;;44.67;25.25;;;;;;;6.60;79.49;100842.00;5067074;28;20044;-84
2021/03/04 05:59:59;;;;;;;44.00;25.50;;;;;;;6.62;78.67;100841.03;5066440;28;20049;-86
2021/03/04 06:02:27;;;;;;;46.63;25.45;;;;;;;6.65;78.86;100837.47;5071816;28;20079;-88
2021/03/04 06:04:55;;;;;;;51.40;26.58;;;;;;;6.71;79.08;100839.09;5058848;28;20166;-89
2021/03/04 06:07:25;;;;;;;;;;;;;;;6.74;79.11;100837.25;5056321;28;20082;-84
2021/03/04 06:09:52;;;;;;;40.05;24.52;;;;;;;6.75;78.83;100844.25;5049892;28;19908;-84
2021/03/04 06:12:19;;;;;;;45.20;26.50;;;;;;;6.77;78.77;100837.16;5071424;28;20046;-87
2021/03/04 06:15:00;;;;;;;43.15;25.73;;;;;;;6.84;78.59;100851.91;5077459;28;20080;-85
2021/03/04 06:17:31;;;;;;;45.20;26.10;;;;;;;6.95;78.29;100851.63;5070896;28;20045;-87
2021/03/04 06:20:02;;;;;;;47.30;25.77;;;;;;;6.97;78.25;100844.56;5051658;28;20036;-89
2021/03/04 06:22:31;;;;;;;42.58;24.33;;;;;;;6.99;78.25;100845.41;5069979;28;20093;-85
2021/03/04 06:25:00;;;;;;;44.85;25.20;;;;;;;7.03;77.97;100842.66;5058943;28;20099;-88
2021/03/04 06:27:31;;;;;;;42.13;25.40;;;;;;;7.10;77.75;100843.34;5079117;28;20116;-85
2021/03/04 06:29:59;;;;;;;44.25;24.92;;;;;;;7.13;77.37;100838.00;5066061;28;20145;-86
2021/03/04 06:32:29;;;;;;;40.85;23.98;;;;;;;7.14;76.84;100837.09;5062221;28;20051;-84
2021/03/04 06:35:01;;;;;;;41.47;25.00;;;;;;;7.18;76.76;100833.50;5040686;28;20048;-87
2021/03/04 06:37:29;;;;;;;42.17;24.48;;;;;;;7.26;75.56;100823.59;5073880;28;20073;-86
2021/03/04 06:39:59;;;;;;;41.80;23.30;;;;;;;7.31;75.47;100818.22;5048322;28;20135;-85
2021/03/04 06:42:37;;;;;;;42.47;22.23;;;;;;;7.44;74.82;100838.06;5064948;28;20057;-84
2021/03/04 06:45:05;;;;;;;40.45;22.98;;;;;;;7.54;74.07;100843.97;5049606;28;20116;-84
2021/03/04 06:47:32;;;;;;;36.50;21.98;;;;;;;7.69;73.13;100847.03;5047661;28;20113;-85
2021/03/04 06:49:59;;;;;;;34.17;21.65;;;;;;;7.78;72.41;100834.50;5072572;28;20048;-88
2021/03/04 06:52:39;;;;;;;40.83;22.33;;;;;;;7.80;72.26;100825.66;5065857;28;20113;-85
2021/03/04 06:55:13;;;;;;;37.55;22.42;;;;;;;7.87;71.96;100821.06;5083730;28;20131;-88
2021/03/04 06:57:41;;;;;;;36.38;21.30;;;;;;;7.92;71.50;100822.66;5058989;28;20849;-86
2021/03/04 07:00:18;;;;;;;37.30;21.95;;;;;;;7.95;71.42;100817.28;5058257;28;20049;-86
2021/03/04 07:02:56;;;;;;;34.42;21.75;;;;;;;8.00;71.34;100817.16;5076004;28;20053;-86
2021/03/04 07:05:26;;;;;;;38.38;21.58;;;;;;;8.06;70.75;100832.78;5065109;28;20357;-86
2021/03/04 07:07:57;;;;;;;37.75;21.40;;;;;;;8.13;70.62;100822.94;5060412;28;20116;-87
2021/03/04 07:10:26;;;;;;;34.83;21.23;;;;;;;8.15;70.39;100814.06;5057062;28;20050;-88
2021/03/04 07:12:57;;;;;;;34.80;21.00;;;;;;;8.14;70.36;100811.47;5043926;28;20083;-88
2021/03/04 07:15:24;;;;;;;41.03;23.00;;;;;;;8.14;70.41;100811.47;5022248;28;20158;-86
2021/03/04 07:17:52;;;;;;;38.17;23.05;;;;;;;8.15;70.50;100816.69;5074564;28;20067;-85
2021/03/04 07:20:24;;;;;;;34.65;22.13;;;;;;;8.29;70.63;100808.34;5058264;28;20053;-85
2021/03/04 07:23:04;;;;;;;40.90;21.90;;;;;;;8.40;70.25;100809.78;5060303;28;20582;-85
2021/03/04 07:25:36;;;;;;;37.75;21.58;;;;;;;8.44;69.86;100813.19;5043855;28;20056;-85
2021/03/04 07:28:10;;;;;;;42.00;23.50;;;;;;;8.36;70.16;100805.50;5061905;28;20047;-85
2021/03/04 07:30:41;;;;;;;37.42;22.50;;;;;;;8.33;70.68;100805.63;5044884;28;20041;-85
2021/03/04 07:33:09;;;;;;;50.72;23.20;;;;;;;8.34;70.73;100811.75;5072542;28;20029;-87
2021/03/04 07:35:46;;;;;;;41.55;22.55;;;;;;;8.39;70.77;100801.91;5081461;28;20039;-88
2021/03/04 07:38:29;;;;;;;127.78;30.20;;;;;;;8.50;70.39;100805.06;5056645;28;20079;-87
2021/03/04 07:41:12;;;;;;;46.00;22.48;;;;;;;8.70;70.00;100814.97;5068264;28;20104;-87
2021/03/04 07:43:59;;;;;;;44.28;22.75;;;;;;;9.04;69.15;100799.75;5088835;28;20056;-88
2021/03/04 07:46:42;;;;;;;36.33;21.95;;;;;;;9.30;67.45;100804.13;5074081;28;20056;-88
2021/03/04 07:49:13;;;;;;;38.65;21.75;;;;;;;9.56;66.34;100799.69;5075245;28;20040;-87
2021/03/04 07:51:46;;;;;;;38.40;22.15;;;;;;;9.80;65.96;100790.84;5054283;28;20029;-87
2021/03/04 07:54:27;;;;;;;38.95;21.67;;;;;;;10.29;64.13;100794.28;5072446;28;20032;-87
2021/03/04 07:57:10;;;;;;;39.03;21.88;;;;;;;10.52;62.82;100786.31;5061682;28;20143;-87
2021/03/04 08:00:04;;;;;;;34.58;21.77;;;;;;;10.49;62.59;100786.44;5051848;28;20183;-85
2021/03/04 08:02:35;;;;;;;34.50;21.75;;;;;;;10.43;62.54;100770.78;5073297;28;20064;-87
2021/03/04 08:05:35;;;;;;;33.15;21.23;;;;;;;10.27;62.96;100774.94;5073713;28;20131;-86
2021/03/04 08:08:17;;;;;;;34.00;21.67;;;;;;;10.29;63.29;100779.28;5076787;28;20101;-86
2021/03/04 08:10:49;;;;;;;32.70;19.88;;;;;;;10.54;62.49;100765.94;5077112;28;20141;-85
2021/03/04 08:13:35;;;;;;;32.50;19.25;;;;;;;10.90;59.47;100774.97;5072727;28;20095;-84
2021/03/04 08:16:11;;;;;;;29.33;18.77;;;;;;;11.01;58.75;100771.88;5048909;28;20064;-87
2021/03/04 08:18:40;;;;;;;27.45;18.45;;;;;;;11.15;57.13;100760.69;5064499;28;20083;-87
2021/03/04 08:21:20;;;;;;;34.13;18.85;;;;;;;11.44;56.20;100768.22;5055673;28;20060;-86
2021/03/04 08:24:01;;;;;;;30.77;18.95;;;;;;;11.79;55.77;100771.09;5055853;28;20079;-86
2021/03/04 08:26:36;;;;;;;27.25;17.75;;;;;;;12.00;55.87;100766.56;5055959;28;21425;-87
2021/03/04 08:29:08;;;;;;;29.25;17.73;;;;;;;12.09;52.86;100766.16;5058763;28;20051;-86
2021/03/04 08:31:50;;;;;;;28.88;18.15;;;;;;;12.04;54.50;100769.03;5058097;28;20041;-87
2021/03/04 08:34:17;;;;;;;;;;;;;;;12.12;53.92;100764.19;5028372;28;20303;-85
2021/03/04 08:36:48;;;;;;;28.83;17.95;;;;;;;12.19;54.33;100765.63;5065469;28;19932;-87
2021/03/04 08:39:19;;;;;;;27.20;17.95;;;;;;;12.25;54.38;100762.69;5042798;28;20041;-84
2021/03/04 08:41:47;;;;;;;31.25;17.60;;;;;;;12.32;53.92;100751.75;5070819;28;20563;-85
2021/03/04 08:44:16;;;;;;;32.17;18.70;;;;;;;12.26;53.49;100751.16;5060257;28;20055;-85
2021/03/04 08:46:47;;;;;;;32.53;18.30;;;;;;;12.17;54.08;100753.38;5059567;28;20053;-83
2021/03/04 08:49:21;;;;;;;32.05;19.10;;;;;;;11.93;54.43;100744.78;5063702;28;20042;-83
2021/03/04 08:51:50;;;;;;;29.60;18.02;;;;;;;11.88;55.64;100747.66;5079665;28;20082;-79
2021/03/04 08:54:27;;;;;;;29.38;18.55;;;;;;;11.92;54.96;100727.13;5054443;28;20525;-86
2021/03/04 08:57:08;;;;;;;28.60;18.75;;;;;;;11.96;55.22;100726.06;5047729;28;20079;-84
2021/03/04 08:59:35;;;;;;;26.65;18.23;;;;;;;12.06;54.68;100727.34;5070106;28;20045;-88
2021/03/04 09:02:16;;;;;;;34.08;19.17;;;;;;;12.09;54.08;100729.00;5072073;28;20029;-87
2021/03/04 09:04:46;;;;;;;27.38;17.83;;;;;;;12.00;54.93;100724.09;5071030;28;20052;-84
2021/03/04 09:07:29;;;;;;;32.95;18.90;;;;;;;11.84;55.13;100718.66;5059252;28;20055;-87
2021/03/04 09:10:04;;;;;;;30.05;17.98;;;;;;;11.75;54.93;100719.06;5070650;28;20045;-86
2021/03/04 09:12:41;;;;;;;29.08;18.88;;;;;;;11.73;54.74;100712.97;5040315;28;20041;-85
2021/03/04 09:15:11;;;;;;;30.60;19.08;;;;;;;11.71;55.67;100706.88;5054803;28;20076;-85
2021/03/04 09:17:45;;;;;;;32.63;18.92;;;;;;;11.93;54.97;100718.25;5060219;28;20044;-86
2021/03/04 09:20:15;;;;;;;30.65;18.75;;;;;;;12.13;54.70;100715.47;5052266;28;20046;-86
2021/03/04 09:22:55;;;;;;;32.58;19.55;;;;;;;12.41;53.81;100708.84;5011106;28;20052;-85
2021/03/04 09:25:27;;;;;;;34.63;19.13;;;;;;;12.58;52.70;100699.09;5028546;28;20046;-86
2021/03/04 09:28:11;;;;;;;31.38;18.73;;;;;;;12.60;52.67;100699.00;5016796;28;20042;-86
2021/03/04 09:30:40;;;;;;;33.80;19.17;;;;;;;12.60;53.07;100704.31;5002014;28;20112;-86
2021/03/04 09:33:23;;;;;;;32.08;19.77;;;;;;;12.57;52.87;100701.84;4994123;28;20045;-86
2021/03/04 09:35:59;;;;;;;31.13;19.88;;;;;;;12.55;52.68;100687.75;5024764;28;20046;-85
2021/03/04 09:38:28;;;;;;;37.45;18.80;;;;;;;12.50;53.03;100684.47;5006460;28;20048;-85
2021/03/04 09:41:12;;;;;;;34.30;20.35;;;;;;;12.44;52.87;100687.41;5016240;28;20054;-85
2021/03/04 09:43:56;;;;;;;29.50;19.40;;;;;;;12.39;53.24;100685.00;5011870;28;20046;-88
2021/03/04 09:46:38;;;;;;;30.83;19.55;;;;;;;12.54;52.84;100702.84;5011021;28;20121;-85
2021/03/04 09:49:16;;;;;;;32.03;19.38;;;;;;;12.58;53.46;100693.78;5052730;28;20534;-89
2021/03/04 09:51:47;;;;;;;33.10;20.55;;;;;;;12.63;53.13;100683.75;5072939;28;20304;-86
2021/03/04 09:54:26;;;;;;;34.10;20.05;;;;;;;12.64;53.49;100687.28;5052267;28;20087;-84
2021/03/04 09:57:04;;;;;;;33.08;19.48;;;;;;;12.52;53.06;100687.91;5026054;28;20044;-86
2021/03/04 09:59:49;;;;;;;32.58;19.35;;;;;;;12.50;52.90;100687.97;5057583;28;20049;-85
2021/03/04 10:02:17;;;;;;;34.42;19.88;;;;;;;12.50;54.09;100697.75;5053480;28;20090;-87
2021/03/04 10:05:00;;;;;;;31.42;19.38;;;;;;;12.48;53.58;100702.28;5059536;28;20053;-85
2021/03/04 10:07:31;;;;;;;32.35;20.08;;;;;;;12.51;53.29;100705.63;5047642;28;20049;-85
2021/03/04 10:10:00;;;;;;;32.45;19.67;;;;;;;12.55;52.87;100698.38;5035799;28;20199;-88
2021/03/04 10:12:31;;;;;;;36.72;21.60;;;;;;;12.49;53.56;100699.53;5063370;28;20047;-89
2021/03/04 10:14:57;;;;;;;34.85;20.98;;;;;;;12.64;52.79;100692.59;5069956;28;20097;-86
2021/03/04 10:17:39;;;;;;;32.53;20.67;;;;;;;12.71;52.93;100683.38;5057147;28;20083;-86
2021/03/04 10:20:09;;;;;;;34.70;20.63;;;;;;;12.79;53.00;100691.81;5066536;28;20049;-86
2021/03/04 10:22:37;;;;;;;32.58;20.58;;;;;;;12.92;52.89;100684.91;5063039;28;20227;-84
2021/03/04 10:25:13;;;;;;;30.40;19.52;;;;;;;13.22;52.49;100681.66;5070560;28;20072;-87
2021/03/04 10:27:40;;;;;;;33.47;19.98;;;;;;;13.65;51.15;100673.06;5084913;28;20127;-86
2021/03/04 10:30:12;;;;;;;32.38;20.05;;;;;;;13.99;50.23;100671.16;5083056;28;20036;-86
2021/03/04 10:32:41;;;;;;;31.45;20.75;;;;;;;14.32;49.77;100665.72;5062549;28;20400;-87
2021/03/04 10:35:13;;;;;;;33.05;19.55;;;;;;;14.45;49.40;100671.22;5049004;28;20052;-86
2021/03/04 10:37:45;;;;;;;33.55;20.50;;;;;;;14.35;49.02;100665.50;5052431;28;20059;-86
2021/03/04 10:40:14;;;;;;;30.35;20.23;;;;;;;14.27;49.57;100673.97;5033055;28;20053;-86
2021/03/04 10:42:42;;;;;;;31.98;20.85;;;;;;;14.13;50.09;100663.25;5055614;28;20096;-85
2021/03/04 10:45:15;;;;;;;31.67;20.23;;;;;;;13.91;50.14;100650.28;5037201;28;20047;-85
2021/03/04 10:47:46;;;;;;;33.22;20.25;;;;;;;13.96;50.55;100663.34;5053236;28;20061;-85
2021/03/04 10:50:18;;;;;;;33.70;21.35;;;;;;;14.06;50.66;100653.88;5068396;28;20057;-84
2021/03/04 10:52:46;;;;;;;33.28;20.90;;;;;;;14.16;50.53;100651.56;5041957;28;20056;-85
2021/03/04 10:55:17;;;;;;;32.10;21.23;;;;;;;14.08;50.40;100654.66;5042660;28;20045;-85
2021/03/04 10:57:45;;;;;;;41.55;22.35;;;;;;;13.89;51.06;100659.31;5057449;28;20049;-85
2021/03/04 11:00:14;;;;;;;33.65;22.45;;;;;;;13.63;51.35;100658.09;5064179;28;20076;-85
2021/03/04 11:02:42;;;;;;;33.83;22.17;;;;;;;13.52;51.83;100664.03;5070407;28;20059;-87
2021/03/04 11:05:12;;;;;;;35.55;22.35;;;;;;;13.46;52.10;100658.16;5076576;28;20061;-86
2021/03/04 11:07:39;;;;;;;36.65;22.67;;;;;;;13.59;52.57;100659.22;5076787;28;20072;-86
2021/03/04 11:10:09;;;;;;;31.33;21.45;;;;;;;13.70;52.01;100656.81;5079050;28;20045;-86
2021/03/04 11:12:48;;;;;;;43.35;22.55;;;;;;;13.90;52.28;100647.72;5078512;28;20057;-86
2021/03/04 11:15:16;;;;;;;39.63;23.02;;;;;;;14.00;51.35;100649.78;5054871;28;20021;-86
2021/03/04 11:17:46;;;;;;;35.35;22.58;;;;;;;14.10;51.00;100636.78;5056186;28;20084;-86
2021/03/04 11:20:14;;;;;;;41.38;24.23;;;;;;;14.19;50.50;100628.25;5053692;28;20088;-85
2021/03/04 11:22:45;;;;;;;42.28;24.73;;;;;;;14.23;50.40;100631.59;5062903;28;20455;-85
2021/03/04 11:25:18;;;;;;;42.22;23.80;;;;;;;14.30;50.81;100627.66;5063821;28;20104;-86
2021/03/04 11:27:44;;;;;;;39.47;24.38;;;;;;;14.65;50.17;100612.22;5043423;28;20044;-84
2021/03/04 11:30:13;;;;;;;39.45;24.08;;;;;;;14.88;50.09;100614.38;5055629;28;20105;-85
2021/03/04 11:32:39;;;;;;;40.45;24.73;;;;;;;15.08;48.30;100615.81;5031828;28;20049;-85
2021/03/04 11:35:06;;;;;;;41.58;25.85;;;;;;;15.19;47.83;100604.47;5054632;28;20040;-87